Time;durP1;ratioP1;P1;durP2;ratioP2;P2;SDS_P1;SDS_P2;PMS_P1;PMS_P2;Temp;Humidity;BMP_temperature;BMP_pressure;BME280_temperature;BME280_humidity;BME280_pressure;Samples;Min_cycle;Max_cycle;Signal;HPM_P1;HPM_P2
2023/08/13 00:01:02;;;;;;;10.80;3.28;;;;;;;20.99;100.00;94916.66;5055348;28;20155;-83
2023/08/13 00:03:27;;;;;;;6.65;3.08;;;;;;;21.00;100.00;94917.41;5055283;28;20114;-83
2023/08/13 00:05:52;;;;;;;12.02;3.30;;;;;;;21.17;100.00;94932.53;5056482;28;20045;-83
2023/08/13 00:08:18;;;;;;;4.95;3.15;;;;;;;21.26;100.00;94927.97;5056760;28;20041;-86
2023/08/13 00:10:43;;;;;;;3.83;2.63;;;;;;;21.41;100.00;94928.50;5055632;28;20557;-85
2023/08/13 00:13:10;;;;;;;6.53;3.10;;;;;;;21.31;100.00;94916.34;5057176;28;20036;-85
2023/08/13 00:15:36;;;;;;;5.70;2.90;;;;;;;21.46;100.00;94917.66;5055497;28;20043;-85
2023/08/13 00:18:01;;;;;;;4.45;2.72;;;;;;;21.50;100.00;94925.78;5055472;28;20040;-86
2023/08/13 00:20:27;;;;;;;4.40;2.72;;;;;;;21.53;100.00;94920.59;5056640;28;20134;-86
2023/08/13 00:22:52;;;;;;;9.70;3.20;;;;;;;21.45;100.00;94924.09;5055047;28;20126;-86
2023/08/13 00:25:17;;;;;;;10.85;3.58;;;;;;;21.42;100.00;94920.16;5055284;28;20093;-85
2023/08/13 00:27:43;;;;;;;5.45;3.00;;;;;;;21.41;100.00;94915.94;5055248;28;20036;-85
2023/08/13 00:30:09;;;;;;;5.15;2.88;;;;;;;21.29;100.00;94918.53;5056153;28;20039;-85
2023/08/13 00:32:35;;;;;;;4.63;2.88;;;;;;;21.21;100.00;94914.03;5054949;28;20032;-85
2023/08/13 00:35:00;;;;;;;5.47;3.00;;;;;;;21.19;100.00;94917.81;5055055;28;20653;-85
2023/08/13 00:37:25;;;;;;;6.50;2.95;;;;;;;21.09;100.00;94917.38;5056233;28;20116;-86
2023/08/13 00:39:51;;;;;;;6.63;2.97;;;;;;;21.13;100.00;94920.97;5054980;28;20041;-85
2023/08/13 00:42:16;;;;;;;4.53;2.90;;;;;;;21.24;100.00;94924.03;5054842;28;20041;-85
2023/08/13 00:44:41;;;;;;;10.73;3.30;;;;;;;21.28;100.00;94927.63;5056212;28;20040;-86
2023/08/13 00:47:08;;;;;;;6.60;2.80;;;;;;;21.20;100.00;94929.22;5038015;28;20522;-85
2023/08/13 00:49:33;;;;;;;4.75;3.03;;;;;;;21.14;100.00;94925.19;5053672;28;20044;-86
2023/08/13 00:51:59;;;;;;;8.95;3.03;;;;;;;21.24;100.00;94918.72;5055713;28;20045;-85
2023/08/13 00:54:24;;;;;;;4.30;2.72;;;;;;;21.26;100.00;94919.97;5055450;28;20071;-85
2023/08/13 00:56:52;;;;;;;4.82;2.95;;;;;;;21.23;100.00;94917.94;5055935;28;20047;-85
2023/08/13 00:59:18;;;;;;;4.38;2.95;;;;;;;21.01;100.00;94914.44;5053924;28;20328;-86
2023/08/13 01:01:43;;;;;;;4.38;3.30;;;;;;;20.73;100.00;94924.69;5054218;28;20040;-86
2023/08/13 01:04:08;;;;;;;5.97;3.25;;;;;;;20.52;100.00;94921.94;5054368;28;20047;-86
2023/08/13 01:06:54;;;;;;;5.30;3.35;;;;;;;20.48;100.00;94919.91;5055454;28;20040;-86
2023/08/13 01:09:42;;;;;;;4.43;2.90;;;;;;;20.59;100.00;94923.03;5054272;28;20056;-86
2023/08/13 01:12:27;;;;;;;7.00;2.90;;;;;;;20.70;100.00;94922.66;5055534;28;20123;-85
2023/08/13 01:15:03;;;;;;;4.88;3.20;;;;;;;20.68;100.00;94920.34;5054080;28;20052;-85
2023/08/13 01:17:29;;;;;;;13.63;3.45;;;;;;;20.74;100.00;94916.38;5037745;28;20032;-85
2023/08/13 01:19:54;;;;;;;4.60;2.95;;;;;;;20.66;100.00;94916.41;5053974;28;20047;-85
2023/08/13 01:22:27;;;;;;;6.82;3.05;;;;;;;20.56;100.00;94917.56;5054058;28;20025;-85
2023/08/13 01:24:53;;;;;;;6.90;3.05;;;;;;;20.63;100.00;94910.63;5054224;28;20036;-85
2023/08/13 01:27:33;;;;;;;7.97;3.28;;;;;;;20.54;100.00;94914.44;5054122;28;20081;-85
2023/08/13 01:30:07;;;;;;;3.75;3.13;;;;;;;20.19;100.00;94905.41;5054052;28;20029;-86
2023/08/13 01:32:36;;;;;;;5.35;3.38;;;;;;;20.04;100.00;94909.34;5053696;28;20032;-85
2023/08/13 01:35:03;;;;;;;8.75;3.13;;;;;;;19.92;100.00;94907.31;5053675;28;20481;-85
2023/08/13 01:37:28;;;;;;;3.85;2.80;;;;;;;20.23;100.00;94904.75;5053869;28;20438;-85
2023/08/13 01:39:54;;;;;;;7.35;3.33;;;;;;;20.01;100.00;94901.22;5053743;28;20167;-86
2023/08/13 01:42:19;;;;;;;4.65;3.33;;;;;;;20.29;100.00;94904.28;5053379;28;20315;-85
2023/08/13 01:44:45;;;;;;;4.57;2.95;;;;;;;20.41;100.00;94900.19;5053527;28;20033;-85
2023/08/13 01:47:10;;;;;;;5.30;3.17;;;;;;;20.33;100.00;94899.13;5054896;28;20040;-85
2023/08/13 01:49:35;;;;;;;7.07;2.97;;;;;;;20.17;100.00;94902.28;5053593;28;20086;-85
2023/08/13 01:52:01;;;;;;;6.25;2.90;;;;;;;19.96;100.00;94902.16;5053562;28;20033;-85
2023/08/13 01:54:26;;;;;;;8.32;3.17;;;;;;;19.98;100.00;94897.28;5055188;28;20028;-85
2023/08/13 01:56:51;;;;;;;5.10;3.03;;;;;;;20.17;100.00;94896.97;5055268;28;20385;-85
2023/08/13 01:59:17;;;;;;;6.38;3.20;;;;;;;19.99;100.00;94906.84;5054908;28;20114;-85
2023/08/13 02:01:42;;;;;;;6.80;3.20;;;;;;;19.88;100.00;94903.69;5054886;28;20450;-85
2023/08/13 02:04:08;;;;;;;11.32;3.08;;;;;;;20.01;100.00;94891.38;5037276;28;20029;-85
2023/08/13 02:06:36;;;;;;;7.60;3.15;;;;;;;20.15;100.00;94901.81;5053549;28;20103;-85
2023/08/13 02:09:02;;;;;;;3.72;3.03;;;;;;;20.27;100.00;94898.50;5053687;28;20074;-85
2023/08/13 02:11:28;;;;;;;8.68;3.10;;;;;;;20.18;100.00;94909.16;5053528;28;20025;-85
2023/08/13 02:13:53;;;;;;;9.07;3.35;;;;;;;20.05;100.00;94904.78;5053743;28;20362;-85
2023/08/13 02:16:19;;;;;;;7.53;3.08;;;;;;;20.07;100.00;94910.56;5054885;28;20033;-85
2023/08/13 02:18:44;;;;;;;6.18;3.03;;;;;;;19.91;100.00;94913.69;5054594;28;20119;-85
2023/08/13 02:21:09;;;;;;;6.15;3.38;;;;;;;20.15;100.00;94901.81;5053901;28;20037;-85
2023/08/13 02:23:35;;;;;;;4.68;3.30;;;;;;;20.11;100.00;94908.88;5036681;28;20114;-85
2023/08/13 02:26:00;;;;;;;3.75;2.78;;;;;;;20.07;100.00;94915.91;5053749;28;20040;-85
2023/08/13 02:28:26;;;;;;;4.97;3.30;;;;;;;20.36;100.00;94911.78;5053178;28;20036;-85
2023/08/13 02:30:51;;;;;;;5.65;3.15;;;;;;;20.23;100.00;94908.22;5055047;28;20041;-85
2023/08/13 02:33:17;;;;;;;7.47;3.58;;;;;;;20.18;100.00;94916.38;5053307;28;20434;-85
2023/08/13 02:35:42;;;;;;;3.88;3.20;;;;;;;20.17;100.00;94912.91;5054679;28;20041;-85
2023/08/13 02:38:07;;;;;;;3.80;2.85;;;;;;;20.11;100.00;94908.06;5054738;28;20442;-85
2023/08/13 02:40:33;;;;;;;5.22;3.20;;;;;;;19.95;100.00;94907.78;5036504;28;20044;-85
2023/08/13 02:42:58;;;;;;;4.35;3.45;;;;;;;19.87;100.00;94904.78;5036910;28;20029;-85
2023/08/13 02:45:24;;;;;;;5.07;3.35;;;;;;;19.97;100.00;94903.72;5054504;28;20033;-85
2023/08/13 02:47:49;;;;;;;4.72;3.35;;;;;;;19.75;100.00;94897.44;5036759;28;20029;-85
2023/08/13 02:50:15;;;;;;;3.90;3.05;;;;;;;19.83;100.00;94895.06;5053061;28;20047;-85
2023/08/13 02:52:40;;;;;;;11.73;4.43;;;;;;;19.52;100.00;94894.16;5036745;28;20055;-85
2023/08/13 02:55:06;;;;;;;10.38;3.15;;;;;;;19.56;100.00;94892.41;5056525;28;20040;-85
2023/08/13 02:57:31;;;;;;;6.82;3.00;;;;;;;19.52;100.00;94899.47;5056425;28;20037;-85
2023/08/13 02:59:57;;;;;;;4.00;3.53;;;;;;;19.65;100.00;94903.06;5056549;28;20438;-86
2023/08/13 03:02:22;;;;;;;3.65;3.20;;;;;;;19.86;100.00;94900.56;5056712;28;20037;-85
2023/08/13 03:04:48;;;;;;;5.28;3.25;;;;;;;19.74;100.00;94895.88;5058003;28;20041;-85
2023/08/13 03:07:13;;;;;;;6.00;3.10;;;;;;;20.06;100.00;94891.19;5056300;28;20036;-85
2023/08/13 03:09:38;;;;;;;6.82;3.05;;;;;;;20.09;100.00;94894.31;5056571;28;20032;-85
2023/08/13 03:12:04;;;;;;;4.93;3.45;;;;;;;19.99;100.00;94890.09;5056424;28;20511;-85
2023/08/13 03:14:30;;;;;;;9.60;3.38;;;;;;;19.89;100.00;94889.28;5056358;28;20041;-85
2023/08/13 03:16:55;;;;;;;4.18;3.10;;;;;;;19.59;100.00;94888.38;5056798;28;20051;-85
2023/08/13 03:19:20;;;;;;;6.65;3.17;;;;;;;19.44;100.00;94889.59;5056335;28;20473;-85
2023/08/13 03:21:46;;;;;;;8.80;3.58;;;;;;;19.45;100.00;94889.28;5056231;28;20036;-85
2023/08/13 03:24:11;;;;;;;5.88;3.50;;;;;;;19.33;100.00;94886.47;5056466;28;20472;-85
2023/08/13 03:26:37;;;;;;;5.03;3.47;;;;;;;19.40;100.00;94883.34;5056049;28;20037;-85
2023/08/13 03:29:02;;;;;;;6.93;3.10;;;;;;;19.46;100.00;94882.88;5057505;28;20426;-85
2023/08/13 03:31:27;;;;;;;5.70;3.30;;;;;;;19.82;100.00;94889.00;5057863;28;20037;-85
2023/08/13 03:33:53;;;;;;;9.85;3.05;;;;;;;19.87;100.00;94885.38;5057758;28;20037;-85
2023/08/13 03:36:18;;;;;;;4.95;2.90;;;;;;;19.88;100.00;94885.06;5059034;28;20111;-85
2023/08/13 03:38:44;;;;;;;6.55;3.17;;;;;;;19.73;100.00;94880.22;5057243;28;20097;-85
2023/08/13 03:41:09;;;;;;;5.88;3.38;;;;;;;19.50;100.00;94888.34;5040663;28;20070;-85
2023/08/13 03:43:35;;;;;;;4.22;3.17;;;;;;;19.74;100.00;94885.25;5057315;28;20028;-85
2023/08/13 03:46:01;;;;;;;4.03;2.78;;;;;;;19.47;100.00;94881.00;5056618;28;20029;-85
2023/08/13 03:48:27;;;;;;;6.93;3.75;;;;;;;19.56;100.00;94881.78;5056995;28;20040;-85
2023/08/13 03:50:52;;;;;;;6.90;3.28;;;;;;;19.58;100.00;94887.56;5037636;28;20034;-85
2023/08/13 03:53:22;;;;;;;8.50;3.58;;;;;;;19.73;100.00;94888.22;5056489;28;20025;-84
2023/08/13 03:55:47;;;;;;;6.45;3.33;;;;;;;19.77;100.00;94891.78;5056497;28;20110;-85
2023/08/13 03:58:20;;;;;;;5.70;3.03;;;;;;;19.80;100.00;94893.84;5058116;28;20396;-85
2023/08/13 04:00:46;;;;;;;7.65;3.13;;;;;;;19.72;100.00;94895.38;5037434;28;20048;-85
2023/08/13 04:03:11;;;;;;;5.13;3.10;;;;;;;19.36;100.00;94891.91;5037378;28;20446;-85
2023/08/13 04:05:36;;;;;;;6.32;2.92;;;;;;;19.52;100.00;94894.16;5037770;28;20038;-85
2023/08/13 04:08:02;;;;;;;5.65;3.58;;;;;;;19.63;100.00;94895.38;5036883;28;20036;-85
2023/08/13 04:10:28;;;;;;;3.78;3.08;;;;;;;19.44;100.00;94892.25;5037258;28;20033;-85
2023/08/13 04:12:55;;;;;;;5.47;3.42;;;;;;;19.52;100.00;94894.16;5037150;28;20033;-85
2023/08/13 04:15:22;;;;;;;6.47;3.35;;;;;;;19.60;100.00;94893.34;5037150;28;20037;-85
2023/08/13 04:17:48;;;;;;;3.90;3.08;;;;;;;19.68;100.00;94891.78;5037790;28;20033;-85
2023/08/13 04:20:13;;;;;;;7.10;3.60;;;;;;;19.55;100.00;94903.34;5036717;28;20461;-85
2023/08/13 04:22:39;;;;;;;6.57;3.33;;;;;;;19.51;100.00;94897.91;5038092;28;20041;-85
2023/08/13 04:25:07;;;;;;;6.43;3.75;;;;;;;19.76;100.00;94893.69;5038162;28;20041;-85
2023/08/13 04:27:32;;;;;;;5.53;2.92;;;;;;;19.92;100.00;94898.56;5036698;28;20060;-85
2023/08/13 04:29:58;;;;;;;4.00;2.90;;;;;;;19.96;100.00;94896.81;5053594;28;20028;-85
2023/08/13 04:32:23;;;;;;;5.43;3.17;;;;;;;19.86;100.00;94905.09;5056623;28;20083;-85
2023/08/13 04:34:48;;;;;;;5.55;3.20;;;;;;;19.97;100.00;94906.38;5056713;28;20060;-85
2023/08/13 04:37:14;;;;;;;10.75;3.08;;;;;;;20.05;100.00;94894.16;5056237;28;20033;-85
2023/08/13 04:39:39;;;;;;;4.70;2.80;;;;;;;20.18;100.00;94903.84;5056394;28;20342;-85
2023/08/13 04:42:05;;;;;;;10.23;3.50;;;;;;;20.07;100.00;94905.25;5056274;28;20021;-85
2023/08/13 04:44:30;;;;;;;6.78;3.15;;;;;;;20.08;100.00;94901.50;5039782;28;20044;-86
2023/08/13 04:46:56;;;;;;;7.25;3.00;;;;;;;20.13;100.00;94904.03;5039781;28;20028;-86
2023/08/13 04:49:21;;;;;;;7.68;3.58;;;;;;;20.23;100.00;94897.59;5056218;28;20029;-86
2023/08/13 04:51:46;;;;;;;4.50;3.05;;;;;;;20.28;100.00;94902.72;5039634;28;20503;-85
2023/08/13 04:54:12;;;;;;;5.53;2.90;;;;;;;20.32;100.00;94902.88;5057507;28;20037;-85
2023/08/13 04:56:37;;;;;;;7.57;3.20;;;;;;;20.08;100.00;94898.06;5055946;28;20315;-85
2023/08/13 04:59:03;;;;;;;6.57;2.97;;;;;;;20.10;100.00;94895.88;5057221;28;20127;-85
2023/08/13 05:01:29;;;;;;;4.93;2.92;;;;;;;20.30;100.00;94905.09;5056491;28;20025;-85
2023/08/13 05:03:54;;;;;;;6.18;3.13;;;;;;;20.32;100.00;94906.34;5056108;28;20087;-85
2023/08/13 05:06:20;;;;;;;5.75;2.80;;;;;;;20.02;100.00;94905.44;5055628;28;20082;-85
2023/08/13 05:08:46;;;;;;;8.02;3.22;;;;;;;20.20;100.00;94908.84;5055836;28;20119;-85
2023/08/13 05:11:11;;;;;;;4.78;2.95;;;;;;;20.47;100.00;94918.34;5055992;28;20033;-85
2023/08/13 05:13:36;;;;;;;6.05;3.00;;;;;;;20.50;100.00;94914.28;5057218;28;20059;-85
2023/08/13 05:16:02;;;;;;;3.55;2.90;;;;;;;20.51;100.00;94909.72;5057051;28;20025;-86
2023/08/13 05:18:27;;;;;;;6.35;3.30;;;;;;;20.24;100.00;94917.00;5054587;28;20032;-85
2023/08/13 05:20:53;;;;;;;8.90;3.13;;;;;;;20.13;100.00;94908.53;5056971;28;20040;-85
2023/08/13 05:23:18;;;;;;;5.10;3.35;;;;;;;20.58;100.00;94910.78;5056698;28;20035;-85
2023/08/13 05:25:43;;;;;;;4.72;3.00;;;;;;;20.65;100.00;94920.19;5055766;28;20025;-86
2023/08/13 05:28:09;;;;;;;4.03;3.03;;;;;;;20.71;100.00;94916.25;5056571;28;20037;-86
2023/08/13 05:30:37;;;;;;;5.20;2.97;;;;;;;20.66;100.00;94917.22;5056895;28;20029;-86
2023/08/13 05:33:02;;;;;;;5.00;3.25;;;;;;;20.39;100.00;94918.38;5055400;28;20037;-86
2023/08/13 05:35:28;;;;;;;4.57;2.80;;;;;;;20.77;100.00;94917.66;5055735;28;20040;-87
2023/08/13 05:37:54;;;;;;;6.40;3.00;;;;;;;20.95;100.00;94917.59;5055901;28;20111;-86
2023/08/13 05:40:19;;;;;;;3.92;2.90;;;;;;;21.11;100.00;94920.53;5055509;28;20128;-86
2023/08/13 05:42:46;;;;;;;5.63;3.28;;;;;;;20.93;100.00;94914.47;5046054;28;20087;-86
2023/08/13 05:45:11;;;;;;;6.47;3.13;;;;;;;21.25;100.00;94913.06;5036849;28;20033;-86
2023/08/13 05:47:37;;;;;;;4.55;2.83;;;;;;;21.27;100.00;94910.88;5035563;28;20034;-86
2023/08/13 05:50:03;;;;;;;4.55;3.25;;;;;;;20.64;100.00;94916.72;5035659;28;20053;-86
2023/08/13 05:52:29;;;;;;;6.60;3.20;;;;;;;20.41;100.00;94919.63;5035328;28;20339;-87
2023/08/13 05:54:54;;;;;;;10.35;4.32;;;;;;;20.33;100.00;94926.53;5037013;28;20037;-84
2023/08/13 05:57:20;;;;;;;4.75;3.00;;;;;;;20.77;100.00;94920.31;5047177;28;20434;-84
2023/08/13 05:59:45;;;;;;;4.00;2.70;;;;;;;21.05;100.00;94922.56;5055389;28;20028;-84
2023/08/13 06:02:10;;;;;;;4.68;3.13;;;;;;;21.10;100.00;94921.63;5056486;28;20063;-84
2023/08/13 06:04:36;;;;;;;4.50;3.08;;;;;;;21.47;100.00;94920.00;5037538;28;20131;-83
2023/08/13 06:07:03;;;;;;;3.47;2.72;;;;;;;21.69;100.00;94918.16;5048412;28;20025;-83
2023/08/13 06:09:29;;;;;;;5.00;2.97;;;;;;;21.84;100.00;94927.47;5055342;28;20057;-84
2023/08/13 06:11:55;;;;;;;3.97;3.05;;;;;;;21.96;100.00;94918.72;5054969;28;20406;-89
2023/08/13 06:14:21;;;;;;;3.60;2.50;;;;;;;22.10;100.00;94921.13;5056364;28;20167;-84
2023/08/13 06:16:46;;;;;;;3.25;2.53;;;;;;;22.25;100.00;94926.97;5053791;28;20349;-84
2023/08/13 06:19:12;;;;;;;4.22;2.80;;;;;;;22.08;100.00;94925.22;5054783;28;20029;-84
2023/08/13 06:21:37;;;;;;;4.43;3.20;;;;;;;22.35;100.00;94931.88;5049233;28;20041;-84
2023/08/13 06:24:05;;;;;;;4.97;3.15;;;;;;;21.88;100.00;94927.59;5036433;28;20447;-84
2023/08/13 06:26:31;;;;;;;8.68;3.45;;;;;;;21.66;100.00;94921.47;5036445;28;20334;-84
2023/08/13 06:28:56;;;;;;;8.27;4.05;;;;;;;22.15;100.00;94928.13;5052883;28;20124;-84
2023/08/13 06:31:21;;;;;;;6.10;3.33;;;;;;;22.47;100.00;94931.16;5040217;28;20087;-84
2023/08/13 06:33:47;;;;;;;3.92;3.05;;;;;;;22.49;100.00;94938.84;5040144;28;20037;-84
2023/08/13 06:36:12;;;;;;;4.70;2.92;;;;;;;22.69;100.00;94923.88;5038990;28;20037;-84
2023/08/13 06:38:38;;;;;;;8.75;2.90;;;;;;;22.22;100.00;94932.94;5038757;28;20029;-84
2023/08/13 06:41:05;;;;;;;5.18;2.90;;;;;;;22.45;100.00;94941.38;5039712;28;20354;-84
2023/08/13 06:43:31;;;;;;;4.25;3.17;;;;;;;22.91;100.00;94937.94;5043700;28;20033;-84
2023/08/13 06:45:57;;;;;;;4.25;2.90;;;;;;;22.97;100.00;94937.41;5053048;28;20079;-85
2023/08/13 06:48:22;;;;;;;5.05;2.70;;;;;;;22.86;100.00;94933.59;5054784;28;20049;-85
2023/08/13 06:50:53;;;;;;;3.70;2.72;;;;;;;23.09;100.00;94933.16;5038434;28;20484;-86
2023/08/13 06:53:19;;;;;;;3.83;3.20;;;;;;;23.11;100.00;94937.06;5038967;28;20041;-86
2023/08/13 06:55:44;;;;;;;5.60;3.22;;;;;;;22.85;100.00;94935.47;5022139;28;20447;-85
2023/08/13 06:58:09;;;;;;;5.43;2.95;;;;;;;23.06;100.00;94941.84;5039498;28;20044;-85
2023/08/13 07:00:35;;;;;;;4.75;3.10;;;;;;;23.12;100.00;94943.97;5043228;28;20123;-85
2023/08/13 07:03:01;;;;;;;9.73;3.13;;;;;;;23.15;100.00;94945.97;5058437;28;20033;-85
2023/08/13 07:05:28;;;;;;;6.97;3.05;;;;;;;23.40;100.00;94939.88;5059630;28;20044;-85
2023/08/13 07:07:53;;;;;;;6.63;3.03;;;;;;;23.18;100.00;94952.53;5058172;28;20037;-86
2023/08/13 07:10:19;;;;;;;6.22;2.72;;;;;;;23.11;100.00;94946.97;5057989;28;20052;-85
2023/08/13 07:12:44;;;;;;;7.13;3.42;;;;;;;23.41;100.00;94941.44;5058161;28;20381;-86
2023/08/13 07:15:10;;;;;;;7.70;3.35;;;;;;;23.48;100.00;94941.63;5058224;28;20040;-85
2023/08/13 07:17:35;;;;;;;25.92;4.00;;;;;;;23.39;100.00;94943.66;5059115;28;20041;-85
2023/08/13 07:20:01;;;;;;;9.88;3.13;;;;;;;23.53;100.00;94943.31;5059179;28;20051;-85
2023/08/13 07:22:27;;;;;;;5.15;3.50;;;;;;;23.91;100.00;94946.69;5058377;28;20033;-84
2023/08/13 07:24:53;;;;;;;4.80;2.80;;;;;;;23.92;100.00;94948.25;5059266;28;20391;-86
2023/08/13 07:27:19;;;;;;;9.55;3.30;;;;;;;23.88;100.00;94947.38;5057775;28;20052;-85
2023/08/13 07:29:44;;;;;;;8.13;2.97;;;;;;;24.08;100.00;94948.34;5058871;28;20025;-84
2023/08/13 07:32:10;;;;;;;5.82;3.10;;;;;;;24.13;100.00;94945.41;5059111;28;20083;-85
2023/08/13 07:34:36;;;;;;;3.75;2.60;;;;;;;24.58;100.00;94954.28;5059033;28;20389;-86
2023/08/13 07:37:01;;;;;;;4.25;2.65;;;;;;;24.66;100.00;94947.97;5057454;28;20081;-86
2023/08/13 07:39:27;;;;;;;4.10;2.45;;;;;;;24.78;100.00;94949.84;5057699;28;20447;-85
2023/08/13 07:41:52;;;;;;;8.00;2.88;;;;;;;24.95;100.00;94943.34;5056913;28;20033;-85
2023/08/13 07:44:17;;;;;;;5.68;2.80;;;;;;;24.76;100.00;94953.94;5058826;28;20040;-85
2023/08/13 07:46:43;;;;;;;8.00;3.40;;;;;;;24.96;100.00;94955.66;5057616;28;20043;-85
2023/08/13 07:49:08;;;;;;;4.22;2.78;;;;;;;25.08;100.00;94945.94;5057483;28;20123;-85
2023/08/13 07:51:34;;;;;;;5.78;2.78;;;;;;;25.25;100.00;94950.19;5058415;28;20025;-85
2023/08/13 07:53:59;;;;;;;15.57;4.65;;;;;;;25.30;100.00;94946.47;5057526;28;20029;-85
2023/08/13 07:56:25;;;;;;;4.88;2.70;;;;;;;25.39;100.00;94949.72;5057514;28;20516;-85
2023/08/13 07:58:50;;;;;;;4.30;2.55;;;;;;;25.27;100.00;94954.06;5058431;28;20342;-85
2023/08/13 08:01:16;;;;;;;4.38;2.42;;;;;;;25.41;100.00;94950.16;5057180;28;20021;-85
2023/08/13 08:03:42;;;;;;;5.75;2.90;;;;;;;25.62;100.00;94959.84;5040730;28;20098;-85
2023/08/13 08:06:08;;;;;;;3.78;2.50;;;;;;;25.57;100.00;94949.38;5057307;28;20079;-85
2023/08/13 08:08:33;;;;;;;5.35;2.85;;;;;;;25.77;100.00;94948.28;5056867;28;20040;-85
2023/08/13 08:10:59;;;;;;;9.27;2.88;;;;;;;25.93;100.00;94947.47;5056783;28;20461;-84
2023/08/13 08:13:24;;;;;;;3.85;2.63;;;;;;;25.86;100.00;94944.63;5057161;28;20044;-85
2023/08/13 08:15:50;;;;;;;6.72;2.75;;;;;;;25.93;100.00;94945.56;5057111;28;20354;-84
2023/08/13 08:18:15;;;;;;;3.17;2.30;;;;;;;26.07;100.00;94941.63;5056890;28;20090;-85
2023/08/13 08:20:40;;;;;;;3.53;3.03;;;;;;;25.78;100.00;94944.47;5057867;28;20194;-85
2023/08/13 08:23:06;;;;;;;7.05;2.75;;;;;;;25.92;100.00;94944.00;5057002;28;20040;-85
2023/08/13 08:25:31;;;;;;;4.53;2.40;;;;;;;26.25;100.00;94945.44;5058016;28;20102;-86
2023/08/13 08:27:57;;;;;;;2.95;2.53;;;;;;;26.25;100.00;94945.44;5056419;28;20032;-84
2023/08/13 08:30:22;;;;;;;4.13;2.85;;;;;;;26.37;100.00;94946.44;5056813;28;20039;-85
2023/08/13 08:32:48;;;;;;;5.32;2.60;;;;;;;26.51;100.00;94946.69;5056534;28;20079;-85
2023/08/13 08:35:14;;;;;;;6.20;3.10;;;;;;;26.16;100.00;94944.09;5057879;28;20112;-85
2023/08/13 08:37:39;;;;;;;5.00;2.67;;;;;;;26.37;100.00;94939.13;5056519;28;20029;-85
2023/08/13 08:40:06;;;;;;;5.45;2.40;;;;;;;26.34;100.00;94937.16;5056842;28;20032;-85
2023/08/13 08:42:32;;;;;;;5.53;2.55;;;;;;;26.51;100.00;94940.53;5040060;28;20078;-86
2023/08/13 08:44:58;;;;;;;3.33;2.53;;;;;;;26.50;100.00;94945.16;5039840;28;20434;-85
2023/08/13 08:47:24;;;;;;;4.13;2.58;;;;;;;26.56;100.00;94942.94;5056085;28;20032;-85
2023/08/13 08:49:51;;;;;;;3.72;2.85;;;;;;;26.54;100.00;94945.97;5056080;28;20070;-85
2023/08/13 08:52:17;;;;;;;6.40;3.35;;;;;;;26.36;100.00;94947.56;5056390;28;20091;-85
2023/08/13 08:54:42;;;;;;;3.00;2.20;;;;;;;26.70;100.00;94945.09;5056975;28;20458;-85
2023/08/13 08:57:08;;;;;;;5.43;3.00;;;;;;;27.04;100.00;94950.69;5055940;28;20021;-85
2023/08/13 08:59:34;;;;;;;7.45;3.30;;;;;;;26.90;100.00;94953.13;5039472;28;20032;-86
2023/08/13 09:02:00;;;;;;;6.03;3.65;;;;;;;26.50;100.00;94947.84;5056291;28;20033;-85
2023/08/13 09:04:25;;;;;;;11.63;3.88;;;;;;;26.67;100.00;94943.88;5056153;28;20052;-85
2023/08/13 09:06:53;;;;;;;7.97;3.40;;;;;;;26.74;100.00;94948.63;5056041;28;20123;-85
2023/08/13 09:09:19;;;;;;;9.10;3.20;;;;;;;26.69;100.00;94946.22;5056842;28;20453;-83
2023/08/13 09:11:45;;;;;;;8.80;3.63;;;;;;;26.69;100.00;94940.84;5056108;28;20032;-85
2023/08/13 09:14:11;;;;;;;9.43;3.45;;;;;;;26.74;100.00;94945.94;5056051;28;20040;-84
2023/08/13 09:16:38;;;;;;;8.30;4.28;;;;;;;26.97;100.00;94947.88;5055989;28;20032;-85
2023/08/13 09:19:03;;;;;;;8.05;4.20;;;;;;;26.87;100.00;94945.78;5055702;28;20065;-85
2023/08/13 09:21:29;;;;;;;233.18;33.17;;;;;;;26.74;100.00;94945.16;5057129;28;20063;-85
2023/08/13 09:23:58;;;;;;;31.00;7.18;;;;;;;27.41;100.00;94946.66;5055826;28;20059;-85
2023/08/13 09:26:27;;;;;;;8.77;4.88;;;;;;;27.21;100.00;94945.97;5055864;28;20048;-85
2023/08/13 09:28:52;;;;;;;7.65;4.03;;;;;;;27.60;100.00;94942.31;5056678;28;20552;-84
2023/08/13 09:31:23;;;;;;;12.98;3.90;;;;;;;27.92;98.96;94944.66;5056204;28;20075;-84
2023/08/13 09:33:48;;;;;;;8.13;4.22;;;;;;;28.04;100.00;94939.03;5051835;28;20358;-84
2023/08/13 09:36:14;;;;;;;9.40;4.10;;;;;;;27.69;100.00;94945.53;5045988;28;20047;-85
2023/08/13 09:38:39;;;;;;;8.57;4.65;;;;;;;27.43;100.00;94938.19;5056526;28;20086;-83
2023/08/13 09:41:05;;;;;;;12.43;4.40;;;;;;;27.55;100.00;94940.72;5055217;28;20079;-84
2023/08/13 09:43:31;;;;;;;10.15;3.97;;;;;;;27.82;100.00;94938.00;5055624;28;20451;-84
2023/08/13 09:46:00;;;;;;;11.00;4.38;;;;;;;27.66;100.00;94940.84;5054378;28;20037;-84
2023/08/13 09:48:26;;;;;;;9.75;4.40;;;;;;;27.55;100.00;94935.34;5050865;28;20044;-84
2023/08/13 09:50:53;;;;;;;10.02;3.72;;;;;;;27.72;100.00;94934.03;5050990;28;20063;-83
2023/08/13 09:53:23;;;;;;;17.05;8.38;;;;;;;27.90;100.00;94928.09;5054986;28;20075;-83
2023/08/13 09:55:55;;;;;;;5.20;3.15;;;;;;;27.46;100.00;94935.56;5055569;28;20456;-85
2023/08/13 09:58:20;;;;;;;6.53;3.58;;;;;;;27.43;100.00;94936.31;5056597;28;20061;-84
2023/08/13 10:00:47;;;;;;;4.05;2.83;;;;;;;27.45;100.00;94927.84;5054971;28;20036;-83
2023/08/13 10:03:16;;;;;;;5.45;3.70;;;;;;;27.23;100.00;94924.88;5055760;28;20076;-82
2023/08/13 10:05:43;;;;;;;4.82;3.42;;;;;;;27.42;100.00;94928.59;5059496;28;20041;-83
2023/08/13 10:08:08;;;;;;;7.05;3.42;;;;;;;27.38;100.00;94928.53;5060530;28;20460;-83
2023/08/13 10:10:36;;;;;;;5.50;3.17;;;;;;;27.99;100.00;94917.84;5059136;28;20025;-83
2023/08/13 10:13:01;;;;;;;6.28;3.78;;;;;;;28.13;100.00;94924.53;5058286;28;20060;-83
2023/08/13 10:15:27;;;;;;;6.72;3.35;;;;;;;28.07;100.00;94921.38;5057526;28;20110;-84
2023/08/13 10:17:53;;;;;;;7.93;3.28;;;;;;;27.90;100.00;94911.94;5059183;28;20037;-83
2023/08/13 10:20:18;;;;;;;5.35;3.00;;;;;;;27.57;100.00;94921.53;5059053;28;20033;-84
2023/08/13 10:22:46;;;;;;;4.82;3.40;;;;;;;27.92;100.00;94918.53;5042556;28;20063;-83
2023/08/13 10:25:26;;;;;;;9.63;3.22;;;;;;;27.87;100.00;94904.59;5054187;28;20028;-83
2023/08/13 10:27:53;;;;;;;7.68;3.45;;;;;;;27.62;100.00;94911.22;5058781;28;20086;-82
2023/08/13 10:30:18;;;;;;;8.90;3.60;;;;;;;27.65;100.00;94915.09;5058760;28;20025;-84
2023/08/13 10:32:57;;;;;;;10.00;3.30;;;;;;;27.29;100.00;94912.66;5058695;28;20035;-82
2023/08/13 10:35:23;;;;;;;7.68;3.90;;;;;;;26.93;100.00;94918.25;5060154;28;20043;-83
2023/08/13 10:37:51;;;;;;;5.90;3.53;;;;;;;27.20;100.00;94909.44;5059863;28;20060;-84
2023/08/13 10:40:18;;;;;;;7.57;3.78;;;;;;;27.28;100.00;94908.41;5058523;28;20035;-82
2023/08/13 10:42:43;;;;;;;10.73;3.60;;;;;;;27.65;100.00;94918.56;5058835;28;20087;-83
2023/08/13 10:45:10;;;;;;;6.10;3.80;;;;;;;27.40;100.00;94912.78;5059680;28;20029;-84
2023/08/13 10:47:39;;;;;;;8.52;3.70;;;;;;;27.92;100.00;94904.28;5041806;28;20036;-83
2023/08/13 10:50:06;;;;;;;10.30;3.50;;;;;;;27.74;100.00;94899.44;5058436;28;20024;-83
2023/08/13 10:52:32;;;;;;;5.93;3.45;;;;;;;28.32;100.00;94905.53;5055238;28;20041;-83
2023/08/13 10:54:58;;;;;;;6.75;3.38;;;;;;;28.06;100.00;94907.13;5057964;28;20335;-84
2023/08/13 10:57:30;;;;;;;6.93;3.80;;;;;;;27.85;100.00;94896.13;5058060;28;20442;-82
2023/08/13 10:59:56;;;;;;;5.75;3.40;;;;;;;27.75;100.00;94906.38;5058407;28;20401;-83
2023/08/13 11:02:22;;;;;;;13.57;4.03;;;;;;;27.64;100.00;94910.84;5058426;28;20461;-83
2023/08/13 11:04:47;;;;;;;5.35;3.25;;;;;;;27.59;100.00;94911.19;5058429;28;20036;-83
2023/08/13 11:07:13;;;;;;;9.75;3.53;;;;;;;27.92;100.00;94906.97;5059047;28;20485;-83
2023/08/13 11:09:40;;;;;;;6.47;3.50;;;;;;;28.19;100.00;94898.84;5058291;28;20037;-83
2023/08/13 11:12:07;;;;;;;9.50;4.03;;;;;;;28.29;98.72;94895.50;5058231;28;20047;-83
2023/08/13 11:14:33;;;;;;;10.27;3.70;;;;;;;28.25;100.00;94905.44;5056176;28;20040;-83
2023/08/13 11:16:59;;;;;;;5.47;3.72;;;;;;;28.05;100.00;94902.91;5035045;28;20044;-82
2023/08/13 11:19:24;;;;;;;7.38;3.70;;;;;;;27.87;100.00;94902.69;5041148;28;20037;-83